sensor_id;sensor_type;location;lat;lon;timestamp;P1;durP1;ratioP1;P2;durP2;ratioP2
46266;SDS011;31998;48.798;15.066;2022-11-20T00:00:53;61.67;;;25.10;;
46266;SDS011;31998;48.798;15.066;2022-11-20T00:03:19;57.87;;;23.30;;
46266;SDS011;31998;48.798;15.066;2022-11-20T00:05:44;56.10;;;24.20;;
46266;SDS011;31998;48.798;15.066;2022-11-20T00:08:10;56.60;;;23.80;;
46266;SDS011;31998;48.798;15.066;2022-11-20T00:10:37;72.97;;;25.60;;
46266;SDS011;31998;48.798;15.066;2022-11-20T00:13:03;64.83;;;23.87;;
46266;SDS011;31998;48.798;15.066;2022-11-20T00:15:29;55.07;;;23.87;;
46266;SDS011;31998;48.798;15.066;2022-11-20T00:17:57;56.43;;;26.70;;
46266;SDS011;31998;48.798;15.066;2022-11-20T00:20:23;65.13;;;24.60;;
46266;SDS011;31998;48.798;15.066;2022-11-20T00:22:49;70.73;;;26.53;;
46266;SDS011;31998;48.798;15.066;2022-11-20T00:25:14;56.67;;;25.17;;
46266;SDS011;31998;48.798;15.066;2022-11-20T00:27:40;71.73;;;25.00;;
46266;SDS011;31998;48.798;15.066;2022-11-20T00:30:05;66.40;;;24.47;;
46266;SDS011;31998;48.798;15.066;2022-11-20T00:32:31;70.97;;;25.93;;
46266;SDS011;31998;48.798;15.066;2022-11-20T00:34:57;68.53;;;27.60;;
46266;SDS011;31998;48.798;15.066;2022-11-20T00:37:22;58.40;;;25.63;;
46266;SDS011;31998;48.798;15.066;2022-11-20T00:39:47;56.93;;;24.57;;
46266;SDS011;31998;48.798;15.066;2022-11-20T00:42:13;72.33;;;25.30;;
46266;SDS011;31998;48.798;15.066;2022-11-20T00:44:38;61.77;;;24.90;;
46266;SDS011;31998;48.798;15.066;2022-11-20T00:47:04;70.73;;;27.20;;
46266;SDS011;31998;48.798;15.066;2022-11-20T00:49:29;64.27;;;25.30;;
46266;SDS011;31998;48.798;15.066;2022-11-20T00:51:54;71.77;;;26.50;;
46266;SDS011;31998;48.798;15.066;2022-11-20T00:54:20;64.47;;;25.73;;
46266;SDS011;31998;48.798;15.066;2022-11-20T00:56:45;62.47;;;23.67;;
46266;SDS011;31998;48.798;15.066;2022-11-20T00:59:11;62.40;;;25.60;;
46266;SDS011;31998;48.798;15.066;2022-11-20T01:01:36;50.60;;;23.20;;
46266;SDS011;31998;48.798;15.066;2022-11-20T01:04:02;59.27;;;24.70;;
46266;SDS011;31998;48.798;15.066;2022-11-20T01:06:32;58.37;;;24.17;;
46266;SDS011;31998;48.798;15.066;2022-11-20T01:09:00;63.47;;;27.33;;
46266;SDS011;31998;48.798;15.066;2022-11-20T01:11:32;55.73;;;23.83;;
46266;SDS011;31998;48.798;15.066;2022-11-20T01:14:00;58.40;;;25.57;;
46266;SDS011;31998;48.798;15.066;2022-11-20T01:16:31;68.53;;;26.90;;
46266;SDS011;31998;48.798;15.066;2022-11-20T01:18:59;56.00;;;24.23;;
46266;SDS011;31998;48.798;15.066;2022-11-20T01:21:36;63.93;;;23.70;;
46266;SDS011;31998;48.798;15.066;2022-11-20T01:24:06;60.17;;;24.80;;
46266;SDS011;31998;48.798;15.066;2022-11-20T01:26:33;55.40;;;23.57;;
46266;SDS011;31998;48.798;15.066;2022-11-20T01:29:00;58.63;;;23.87;;
46266;SDS011;31998;48.798;15.066;2022-11-20T01:31:28;54.17;;;23.27;;
46266;SDS011;31998;48.798;15.066;2022-11-20T01:33:56;52.37;;;24.43;;
46266;SDS011;31998;48.798;15.066;2022-11-20T01:36:25;58.50;;;24.67;;
46266;SDS011;31998;48.798;15.066;2022-11-20T01:38:52;58.03;;;23.67;;
46266;SDS011;31998;48.798;15.066;2022-11-20T01:41:19;50.00;;;22.47;;
46266;SDS011;31998;48.798;15.066;2022-11-20T01:44:04;58.47;;;22.87;;
46266;SDS011;31998;48.798;15.066;2022-11-20T01:46:30;53.53;;;24.47;;
46266;SDS011;31998;48.798;15.066;2022-11-20T01:49:10;68.43;;;25.07;;
46266;SDS011;31998;48.798;15.066;2022-11-20T01:51:44;55.03;;;24.10;;
46266;SDS011;31998;48.798;15.066;2022-11-20T01:54:16;56.43;;;24.87;;
46266;SDS011;31998;48.798;15.066;2022-11-20T01:56:54;57.30;;;24.93;;
46266;SDS011;31998;48.798;15.066;2022-11-20T01:59:23;50.37;;;24.47;;
46266;SDS011;31998;48.798;15.066;2022-11-20T02:01:50;55.63;;;23.10;;
46266;SDS011;31998;48.798;15.066;2022-11-20T02:04:16;45.07;;;23.00;;
46266;SDS011;31998;48.798;15.066;2022-11-20T02:06:48;50.40;;;22.63;;
46266;SDS011;31998;48.798;15.066;2022-11-20T02:09:16;50.27;;;23.50;;
46266;SDS011;31998;48.798;15.066;2022-11-20T02:11:41;58.13;;;23.67;;
46266;SDS011;31998;48.798;15.066;2022-11-20T02:14:07;52.47;;;22.73;;
46266;SDS011;31998;48.798;15.066;2022-11-20T02:16:35;58.90;;;23.17;;
46266;SDS011;31998;48.798;15.066;2022-11-20T02:19:04;56.50;;;24.80;;
46266;SDS011;31998;48.798;15.066;2022-11-20T02:21:39;57.37;;;23.83;;
46266;SDS011;31998;48.798;15.066;2022-11-20T02:27:10;49.37;;;22.20;;
46266;SDS011;31998;48.798;15.066;2022-11-20T02:29:37;53.50;;;23.80;;
46266;SDS011;31998;48.798;15.066;2022-11-20T02:32:05;57.27;;;22.97;;
46266;SDS011;31998;48.798;15.066;2022-11-20T02:34:31;46.50;;;20.70;;
46266;SDS011;31998;48.798;15.066;2022-11-20T02:36:57;61.07;;;24.07;;
46266;SDS011;31998;48.798;15.066;2022-11-20T02:39:25;49.90;;;24.10;;
46266;SDS011;31998;48.798;15.066;2022-11-20T02:41:53;69.10;;;25.93;;
46266;SDS011;31998;48.798;15.066;2022-11-20T02:44:19;58.07;;;22.43;;
46266;SDS011;31998;48.798;15.066;2022-11-20T02:46:45;49.20;;;24.37;;
46266;SDS011;31998;48.798;15.066;2022-11-20T02:49:11;48.03;;;20.40;;
46266;SDS011;31998;48.798;15.066;2022-11-20T02:51:36;52.37;;;23.20;;
46266;SDS011;31998;48.798;15.066;2022-11-20T02:54:02;51.17;;;21.40;;
46266;SDS011;31998;48.798;15.066;2022-11-20T02:56:28;46.83;;;21.43;;
46266;SDS011;31998;48.798;15.066;2022-11-20T02:58:54;43.80;;;20.53;;
46266;SDS011;31998;48.798;15.066;2022-11-20T03:01:19;49.60;;;21.70;;
46266;SDS011;31998;48.798;15.066;2022-11-20T03:03:45;44.50;;;20.63;;
46266;SDS011;31998;48.798;15.066;2022-11-20T03:06:10;43.27;;;21.27;;
46266;SDS011;31998;48.798;15.066;2022-11-20T03:08:35;40.17;;;19.70;;
46266;SDS011;31998;48.798;15.066;2022-11-20T03:11:05;39.67;;;21.73;;
46266;SDS011;31998;48.798;15.066;2022-11-20T03:13:32;40.10;;;20.40;;
46266;SDS011;31998;48.798;15.066;2022-11-20T03:15:57;37.90;;;18.03;;
46266;SDS011;31998;48.798;15.066;2022-11-20T03:18:22;38.50;;;19.77;;
46266;SDS011;31998;48.798;15.066;2022-11-20T03:20:48;36.60;;;19.33;;
46266;SDS011;31998;48.798;15.066;2022-11-20T03:23:13;44.07;;;21.90;;
46266;SDS011;31998;48.798;15.066;2022-11-20T03:25:38;49.30;;;20.27;;
46266;SDS011;31998;48.798;15.066;2022-11-20T03:28:04;38.47;;;19.90;;
46266;SDS011;31998;48.798;15.066;2022-11-20T03:30:29;40.17;;;19.30;;
46266;SDS011;31998;48.798;15.066;2022-11-20T03:32:54;43.83;;;20.63;;
46266;SDS011;31998;48.798;15.066;2022-11-20T03:35:20;42.83;;;19.47;;
46266;SDS011;31998;48.798;15.066;2022-11-20T03:37:45;46.20;;;22.23;;
46266;SDS011;31998;48.798;15.066;2022-11-20T03:40:11;50.53;;;22.80;;
46266;SDS011;31998;48.798;15.066;2022-11-20T03:42:37;38.40;;;20.80;;
46266;SDS011;31998;48.798;15.066;2022-11-20T03:45:11;53.00;;;22.50;;
46266;SDS011;31998;48.798;15.066;2022-11-20T03:47:40;49.70;;;22.83;;
46266;SDS011;31998;48.798;15.066;2022-11-20T03:50:06;47.63;;;20.63;;
46266;SDS011;31998;48.798;15.066;2022-11-20T03:52:32;41.87;;;18.57;;
46266;SDS011;31998;48.798;15.066;2022-11-20T03:54:57;46.03;;;20.50;;
46266;SDS011;31998;48.798;15.066;2022-11-20T03:57:23;45.77;;;21.27;;
46266;SDS011;31998;48.798;15.066;2022-11-20T03:59:48;47.00;;;21.50;;
46266;SDS011;31998;48.798;15.066;2022-11-20T04:02:14;41.47;;;20.10;;
46266;SDS011;31998;48.798;15.066;2022-11-20T04:04:39;44.90;;;20.33;;
46266;SDS011;31998;48.798;15.066;2022-11-20T04:07:04;40.10;;;20.10;;
46266;SDS011;31998;48.798;15.066;2022-11-20T04:09:30;51.93;;;21.87;;
46266;SDS011;31998;48.798;15.066;2022-11-20T04:11:55;42.53;;;20.57;;
46266;SDS011;31998;48.798;15.066;2022-11-20T04:14:21;42.30;;;19.90;;
46266;SDS011;31998;48.798;15.066;2022-11-20T04:16:46;36.30;;;19.53;;
46266;SDS011;31998;48.798;15.066;2022-11-20T04:19:15;40.40;;;21.07;;
46266;SDS011;31998;48.798;15.066;2022-11-20T04:21:41;35.10;;;17.33;;
46266;SDS011;31998;48.798;15.066;2022-11-20T04:24:07;40.60;;;20.30;;
46266;SDS011;31998;48.798;15.066;2022-11-20T04:26:33;36.97;;;20.20;;
46266;SDS011;31998;48.798;15.066;2022-11-20T04:28:59;39.30;;;19.13;;
46266;SDS011;31998;48.798;15.066;2022-11-20T04:31:31;42.73;;;20.20;;
46266;SDS011;31998;48.798;15.066;2022-11-20T04:33:59;31.73;;;17.93;;
46266;SDS011;31998;48.798;15.066;2022-11-20T04:36:29;37.87;;;18.40;;
46266;SDS011;31998;48.798;15.066;2022-11-20T04:38:56;43.67;;;19.53;;
46266;SDS011;31998;48.798;15.066;2022-11-20T04:41:23;37.17;;;19.30;;
46266;SDS011;31998;48.798;15.066;2022-11-20T04:43:51;40.00;;;19.83;;
46266;SDS011;31998;48.798;15.066;2022-11-20T04:46:23;35.40;;;18.50;;
46266;SDS011;31998;48.798;15.066;2022-11-20T04:48:49;32.23;;;19.00;;
46266;SDS011;31998;48.798;15.066;2022-11-20T04:51:15;39.60;;;19.37;;
46266;SDS011;31998;48.798;15.066;2022-11-20T04:53:41;37.50;;;20.03;;
46266;SDS011;31998;48.798;15.066;2022-11-20T04:56:07;35.13;;;17.63;;
46266;SDS011;31998;48.798;15.066;2022-11-20T04:58:35;34.23;;;17.57;;
46266;SDS011;31998;48.798;15.066;2022-11-20T05:01:05;38.03;;;18.83;;
46266;SDS011;31998;48.798;15.066;2022-11-20T05:03:30;36.87;;;17.17;;
46266;SDS011;31998;48.798;15.066;2022-11-20T05:05:56;36.40;;;18.27;;
46266;SDS011;31998;48.798;15.066;2022-11-20T05:08:24;31.93;;;17.43;;
46266;SDS011;31998;48.798;15.066;2022-11-20T05:10:49;38.23;;;18.97;;
46266;SDS011;31998;48.798;15.066;2022-11-20T05:13:15;36.90;;;20.20;;
46266;SDS011;31998;48.798;15.066;2022-11-20T05:15:40;35.40;;;18.83;;
46266;SDS011;31998;48.798;15.066;2022-11-20T05:18:05;37.83;;;18.50;;
46266;SDS011;31998;48.798;15.066;2022-11-20T05:20:31;40.07;;;18.90;;
46266;SDS011;31998;48.798;15.066;2022-11-20T05:22:56;38.10;;;17.33;;
46266;SDS011;31998;48.798;15.066;2022-11-20T05:25:22;44.93;;;21.03;;
46266;SDS011;31998;48.798;15.066;2022-11-20T05:27:48;44.93;;;20.67;;
46266;SDS011;31998;48.798;15.066;2022-11-20T05:30:13;34.90;;;18.93;;
46266;SDS011;31998;48.798;15.066;2022-11-20T05:32:39;40.20;;;19.70;;
46266;SDS011;31998;48.798;15.066;2022-11-20T05:35:04;41.40;;;20.60;;
46266;SDS011;31998;48.798;15.066;2022-11-20T05:37:30;35.07;;;19.33;;
46266;SDS011;31998;48.798;15.066;2022-11-20T05:39:55;39.83;;;20.17;;
46266;SDS011;31998;48.798;15.066;2022-11-20T05:42:21;39.70;;;20.23;;
46266;SDS011;31998;48.798;15.066;2022-11-20T05:44:56;37.73;;;19.50;;
46266;SDS011;31998;48.798;15.066;2022-11-20T05:47:31;45.30;;;21.50;;
46266;SDS011;31998;48.798;15.066;2022-11-20T05:49:58;34.50;;;18.00;;
46266;SDS011;31998;48.798;15.066;2022-11-20T05:52:24;40.30;;;19.50;;
46266;SDS011;31998;48.798;15.066;2022-11-20T05:54:49;37.87;;;19.50;;
46266;SDS011;31998;48.798;15.066;2022-11-20T05:57:15;40.33;;;19.40;;
46266;SDS011;31998;48.798;15.066;2022-11-20T05:59:41;36.90;;;19.47;;
46266;SDS011;31998;48.798;15.066;2022-11-20T06:02:06;44.73;;;22.13;;
46266;SDS011;31998;48.798;15.066;2022-11-20T06:04:32;38.63;;;19.00;;
46266;SDS011;31998;48.798;15.066;2022-11-20T06:06:57;32.00;;;17.40;;
46266;SDS011;31998;48.798;15.066;2022-11-20T06:09:23;37.97;;;19.20;;
46266;SDS011;31998;48.798;15.066;2022-11-20T06:11:48;41.00;;;18.97;;
46266;SDS011;31998;48.798;15.066;2022-11-20T06:14:13;33.93;;;18.37;;
46266;SDS011;31998;48.798;15.066;2022-11-20T06:16:39;37.23;;;18.20;;
46266;SDS011;31998;48.798;15.066;2022-11-20T06:19:04;36.87;;;17.53;;
46266;SDS011;31998;48.798;15.066;2022-11-20T06:21:29;40.07;;;19.17;;
46266;SDS011;31998;48.798;15.066;2022-11-20T06:23:55;32.73;;;17.73;;
46266;SDS011;31998;48.798;15.066;2022-11-20T06:26:25;40.87;;;20.40;;
46266;SDS011;31998;48.798;15.066;2022-11-20T06:28:52;30.97;;;17.40;;
46266;SDS011;31998;48.798;15.066;2022-11-20T06:31:19;40.60;;;20.00;;
46266;SDS011;31998;48.798;15.066;2022-11-20T06:33:46;41.27;;;21.77;;
46266;SDS011;31998;48.798;15.066;2022-11-20T06:36:13;37.33;;;19.87;;
46266;SDS011;31998;48.798;15.066;2022-11-20T06:38:40;47.07;;;20.40;;
46266;SDS011;31998;48.798;15.066;2022-11-20T06:41:07;36.23;;;20.70;;
46266;SDS011;31998;48.798;15.066;2022-11-20T06:43:36;42.43;;;20.20;;
46266;SDS011;31998;48.798;15.066;2022-11-20T06:46:02;46.33;;;22.30;;
46266;SDS011;31998;48.798;15.066;2022-11-20T06:48:27;46.00;;;22.90;;
46266;SDS011;31998;48.798;15.066;2022-11-20T06:50:53;41.67;;;21.30;;
46266;SDS011;31998;48.798;15.066;2022-11-20T06:53:19;36.37;;;20.40;;
46266;SDS011;31998;48.798;15.066;2022-11-20T06:55:45;46.43;;;22.13;;
46266;SDS011;31998;48.798;15.066;2022-11-20T06:58:11;42.77;;;20.50;;
46266;SDS011;31998;48.798;15.066;2022-11-20T07:00:38;46.93;;;20.63;;
46266;SDS011;31998;48.798;15.066;2022-11-20T07:03:03;43.67;;;22.07;;
46266;SDS011;31998;48.798;15.066;2022-11-20T07:05:29;40.80;;;20.57;;
46266;SDS011;31998;48.798;15.066;2022-11-20T07:07:55;47.87;;;22.47;;
46266;SDS011;31998;48.798;15.066;2022-11-20T07:10:21;47.00;;;23.07;;
46266;SDS011;31998;48.798;15.066;2022-11-20T07:12:50;42.20;;;21.10;;
46266;SDS011;31998;48.798;15.066;2022-11-20T07:15:19;40.93;;;21.27;;
46266;SDS011;31998;48.798;15.066;2022-11-20T07:17:46;43.00;;;21.30;;
46266;SDS011;31998;48.798;15.066;2022-11-20T07:20:12;41.40;;;21.97;;
46266;SDS011;31998;48.798;15.066;2022-11-20T07:22:38;46.27;;;21.90;;
46266;SDS011;31998;48.798;15.066;2022-11-20T07:25:03;50.57;;;22.73;;
46266;SDS011;31998;48.798;15.066;2022-11-20T07:27:29;55.80;;;23.17;;
46266;SDS011;31998;48.798;15.066;2022-11-20T07:29:54;54.13;;;25.13;;
46266;SDS011;31998;48.798;15.066;2022-11-20T07:32:20;61.37;;;27.70;;
46266;SDS011;31998;48.798;15.066;2022-11-20T07:34:45;45.60;;;24.33;;
46266;SDS011;31998;48.798;15.066;2022-11-20T07:37:11;49.53;;;23.80;;
46266;SDS011;31998;48.798;15.066;2022-11-20T07:39:36;49.37;;;23.60;;
46266;SDS011;31998;48.798;15.066;2022-11-20T07:42:02;45.60;;;22.10;;
46266;SDS011;31998;48.798;15.066;2022-11-20T07:44:27;46.50;;;22.37;;
46266;SDS011;31998;48.798;15.066;2022-11-20T07:46:53;42.87;;;22.87;;
46266;SDS011;31998;48.798;15.066;2022-11-20T07:49:18;41.97;;;22.33;;
46266;SDS011;31998;48.798;15.066;2022-11-20T07:51:43;45.40;;;22.70;;
46266;SDS011;31998;48.798;15.066;2022-11-20T07:54:09;47.93;;;23.47;;
46266;SDS011;31998;48.798;15.066;2022-11-20T07:56:34;47.97;;;22.47;;
46266;SDS011;31998;48.798;15.066;2022-11-20T07:58:59;54.53;;;26.40;;
46266;SDS011;31998;48.798;15.066;2022-11-20T08:01:25;46.87;;;24.70;;
46266;SDS011;31998;48.798;15.066;2022-11-20T08:03:50;48.37;;;25.80;;
46266;SDS011;31998;48.798;15.066;2022-11-20T08:06:16;55.20;;;26.30;;
46266;SDS011;31998;48.798;15.066;2022-11-20T08:08:42;51.67;;;25.37;;
46266;SDS011;31998;48.798;15.066;2022-11-20T08:11:07;43.77;;;24.20;;
46266;SDS011;31998;48.798;15.066;2022-11-20T08:13:51;50.40;;;24.67;;
46266;SDS011;31998;48.798;15.066;2022-11-20T08:16:35;54.10;;;24.97;;
46266;SDS011;31998;48.798;15.066;2022-11-20T08:19:00;51.60;;;22.77;;
46266;SDS011;31998;48.798;15.066;2022-11-20T08:21:26;46.33;;;24.00;;
46266;SDS011;31998;48.798;15.066;2022-11-20T08:23:51;45.90;;;22.33;;
46266;SDS011;31998;48.798;15.066;2022-11-20T08:26:16;57.87;;;25.20;;
46266;SDS011;31998;48.798;15.066;2022-11-20T08:28:42;54.47;;;25.10;;
46266;SDS011;31998;48.798;15.066;2022-11-20T08:31:07;56.77;;;25.97;;
46266;SDS011;31998;48.798;15.066;2022-11-20T08:33:35;62.27;;;25.90;;
46266;SDS011;31998;48.798;15.066;2022-11-20T08:36:01;62.23;;;24.87;;
46266;SDS011;31998;48.798;15.066;2022-11-20T08:38:28;66.87;;;29.63;;
46266;SDS011;31998;48.798;15.066;2022-11-20T08:40:58;60.23;;;25.80;;
46266;SDS011;31998;48.798;15.066;2022-11-20T08:43:44;61.33;;;26.60;;
46266;SDS011;31998;48.798;15.066;2022-11-20T08:46:09;56.73;;;27.30;;
46266;SDS011;31998;48.798;15.066;2022-11-20T08:48:35;56.80;;;26.70;;
46266;SDS011;31998;48.798;15.066;2022-11-20T08:51:00;58.50;;;28.03;;
46266;SDS011;31998;48.798;15.066;2022-11-20T08:53:26;61.70;;;26.30;;
46266;SDS011;31998;48.798;15.066;2022-11-20T08:55:52;66.67;;;25.93;;
46266;SDS011;31998;48.798;15.066;2022-11-20T08:58:18;70.00;;;26.67;;
46266;SDS011;31998;48.798;15.066;2022-11-20T09:00:43;61.90;;;26.73;;
46266;SDS011;31998;48.798;15.066;2022-11-20T09:03:08;59.77;;;27.20;;
46266;SDS011;31998;48.798;15.066;2022-11-20T09:05:34;67.37;;;28.17;;
46266;SDS011;31998;48.798;15.066;2022-11-20T09:07:59;57.73;;;27.60;;
46266;SDS011;31998;48.798;15.066;2022-11-20T09:10:28;63.00;;;28.33;;
46266;SDS011;31998;48.798;15.066;2022-11-20T09:12:53;59.23;;;27.27;;
46266;SDS011;31998;48.798;15.066;2022-11-20T09:15:20;65.07;;;27.43;;
46266;SDS011;31998;48.798;15.066;2022-11-20T09:17:55;64.03;;;27.87;;
46266;SDS011;31998;48.798;15.066;2022-11-20T09:20:25;66.30;;;27.83;;
46266;SDS011;31998;48.798;15.066;2022-11-20T09:22:51;74.47;;;28.87;;
46266;SDS011;31998;48.798;15.066;2022-11-20T09:25:17;63.87;;;28.50;;
46266;SDS011;31998;48.798;15.066;2022-11-20T09:27:42;56.77;;;28.03;;
46266;SDS011;31998;48.798;15.066;2022-11-20T09:30:10;56.00;;;23.23;;
46266;SDS011;31998;48.798;15.066;2022-11-20T09:32:38;54.30;;;25.27;;
46266;SDS011;31998;48.798;15.066;2022-11-20T09:35:04;65.23;;;29.53;;
46266;SDS011;31998;48.798;15.066;2022-11-20T09:37:29;53.23;;;26.40;;
46266;SDS011;31998;48.798;15.066;2022-11-20T09:39:54;59.00;;;26.30;;
46266;SDS011;31998;48.798;15.066;2022-11-20T09:45:05;58.50;;;26.97;;
46266;SDS011;31998;48.798;15.066;2022-11-20T09:47:59;65.03;;;27.63;;
46266;SDS011;31998;48.798;15.066;2022-11-20T09:56:40;70.33;;;28.00;;
46266;SDS011;31998;48.798;15.066;2022-11-20T09:59:14;57.23;;;27.47;;
46266;SDS011;31998;48.798;15.066;2022-11-20T10:04:50;50.20;;;24.53;;
46266;SDS011;31998;48.798;15.066;2022-11-20T10:07:25;52.40;;;26.20;;
46266;SDS011;31998;48.798;15.066;2022-11-20T10:09:54;55.70;;;25.20;;
46266;SDS011;31998;48.798;15.066;2022-11-20T10:20:43;58.27;;;27.13;;
46266;SDS011;31998;48.798;15.066;2022-11-20T10:28:40;57.00;;;31.17;;
46266;SDS011;31998;48.798;15.066;2022-11-20T10:31:30;64.33;;;30.57;;
46266;SDS011;31998;48.798;15.066;2022-11-20T10:34:00;55.17;;;28.13;;
46266;SDS011;31998;48.798;15.066;2022-11-20T10:36:38;58.70;;;28.53;;
46266;SDS011;31998;48.798;15.066;2022-11-20T10:41:55;51.93;;;26.67;;
46266;SDS011;31998;48.798;15.066;2022-11-20T10:44:22;50.50;;;25.37;;
46266;SDS011;31998;48.798;15.066;2022-11-20T10:47:14;51.87;;;24.43;;
46266;SDS011;31998;48.798;15.066;2022-11-20T10:49:41;51.73;;;24.77;;
46266;SDS011;31998;48.798;15.066;2022-11-20T10:52:35;57.67;;;27.27;;
46266;SDS011;31998;48.798;15.066;2022-11-20T10:55:39;60.53;;;29.67;;
46266;SDS011;31998;48.798;15.066;2022-11-20T11:00:49;57.03;;;27.70;;
46266;SDS011;31998;48.798;15.066;2022-11-20T11:03:25;53.37;;;26.40;;
46266;SDS011;31998;48.798;15.066;2022-11-20T11:06:00;53.33;;;24.17;;
46266;SDS011;31998;48.798;15.066;2022-11-20T11:08:35;55.80;;;27.40;;
46266;SDS011;31998;48.798;15.066;2022-11-20T11:11:22;48.53;;;24.70;;
46266;SDS011;31998;48.798;15.066;2022-11-20T11:13:50;49.47;;;26.67;;
46266;SDS011;31998;48.798;15.066;2022-11-20T11:16:19;52.50;;;25.20;;
46266;SDS011;31998;48.798;15.066;2022-11-20T11:18:51;51.50;;;26.27;;
46266;SDS011;31998;48.798;15.066;2022-11-20T11:21:28;45.70;;;23.93;;
46266;SDS011;31998;48.798;15.066;2022-11-20T11:24:00;42.80;;;22.00;;
46266;SDS011;31998;48.798;15.066;2022-11-20T11:26:28;43.53;;;23.50;;
46266;SDS011;31998;48.798;15.066;2022-11-20T11:31:24;78.57;;;35.13;;
46266;SDS011;31998;48.798;15.066;2022-11-20T11:33:50;69.40;;;32.60;;
46266;SDS011;31998;48.798;15.066;2022-11-20T11:36:17;46.13;;;25.70;;
46266;SDS011;31998;48.798;15.066;2022-11-20T11:38:48;51.03;;;26.63;;
46266;SDS011;31998;48.798;15.066;2022-11-20T11:41:20;39.40;;;24.33;;
46266;SDS011;31998;48.798;15.066;2022-11-20T11:44:00;40.23;;;22.20;;
46266;SDS011;31998;48.798;15.066;2022-11-20T11:46:56;33.10;;;21.27;;
46266;SDS011;31998;48.798;15.066;2022-11-20T11:49:23;38.27;;;21.40;;
46266;SDS011;31998;48.798;15.066;2022-11-20T11:54:42;44.00;;;24.17;;
46266;SDS011;31998;48.798;15.066;2022-11-20T12:10:49;8.10;;;7.30;;
46266;SDS011;31998;48.798;15.066;2022-11-20T12:15:55;11.73;;;7.10;;
46266;SDS011;31998;48.798;15.066;2022-11-20T12:18:21;7.53;;;6.87;;
46266;SDS011;31998;48.798;15.066;2022-11-20T12:35:05;15.90;;;7.80;;
46266;SDS011;31998;48.798;15.066;2022-11-20T12:37:48;17.30;;;9.73;;
46266;SDS011;31998;48.798;15.066;2022-11-20T12:43:42;10.00;;;8.27;;
46266;SDS011;31998;48.798;15.066;2022-11-20T12:46:51;10.23;;;7.70;;
46266;SDS011;31998;48.798;15.066;2022-11-20T12:49:37;6.37;;;5.80;;
46266;SDS011;31998;48.798;15.066;2022-11-20T12:57:58;7.87;;;6.47;;
46266;SDS011;31998;48.798;15.066;2022-11-20T13:00:47;8.63;;;7.33;;
46266;SDS011;31998;48.798;15.066;2022-11-20T13:06:10;6.30;;;5.80;;
46266;SDS011;31998;48.798;15.066;2022-11-20T13:08:37;7.17;;;6.70;;
46266;SDS011;31998;48.798;15.066;2022-11-20T13:19:25;6.07;;;5.57;;
46266;SDS011;31998;48.798;15.066;2022-11-20T13:21:52;6.10;;;5.70;;
46266;SDS011;31998;48.798;15.066;2022-11-20T13:26:48;6.27;;;5.67;;
46266;SDS011;31998;48.798;15.066;2022-11-20T13:29:25;5.17;;;4.77;;
46266;SDS011;31998;48.798;15.066;2022-11-20T13:31:51;5.20;;;4.90;;
46266;SDS011;31998;48.798;15.066;2022-11-20T13:34:26;8.20;;;5.20;;
46266;SDS011;31998;48.798;15.066;2022-11-20T13:36:54;9.40;;;8.60;;
46266;SDS011;31998;48.798;15.066;2022-11-20T13:39:25;8.77;;;7.87;;
46266;SDS011;31998;48.798;15.066;2022-11-20T13:42:01;11.03;;;8.80;;
46266;SDS011;31998;48.798;15.066;2022-11-20T13:44:47;14.30;;;9.07;;
46266;SDS011;31998;48.798;15.066;2022-11-20T13:47:22;16.93;;;9.00;;
46266;SDS011;31998;48.798;15.066;2022-11-20T13:49:53;11.37;;;6.97;;
46266;SDS011;31998;48.798;15.066;2022-11-20T13:55:26;7.73;;;5.10;;
46266;SDS011;31998;48.798;15.066;2022-11-20T13:58:24;5.07;;;4.60;;
46266;SDS011;31998;48.798;15.066;2022-11-20T14:01:05;12.47;;;6.87;;
46266;SDS011;31998;48.798;15.066;2022-11-20T14:03:34;7.50;;;6.70;;
46266;SDS011;31998;48.798;15.066;2022-11-20T14:06:01;9.77;;;6.90;;
46266;SDS011;31998;48.798;15.066;2022-11-20T14:11:22;18.50;;;15.10;;
46266;SDS011;31998;48.798;15.066;2022-11-20T14:16:22;7.20;;;6.60;;
46266;SDS011;31998;48.798;15.066;2022-11-20T14:18:48;15.10;;;11.43;;
46266;SDS011;31998;48.798;15.066;2022-11-20T14:21:24;7.77;;;7.03;;
46266;SDS011;31998;48.798;15.066;2022-11-20T14:24:05;6.57;;;5.83;;
46266;SDS011;31998;48.798;15.066;2022-11-20T14:26:32;5.87;;;5.37;;
46266;SDS011;31998;48.798;15.066;2022-11-20T14:28:58;4.27;;;3.97;;
46266;SDS011;31998;48.798;15.066;2022-11-20T14:31:24;4.67;;;4.27;;
46266;SDS011;31998;48.798;15.066;2022-11-20T14:33:52;5.83;;;5.27;;
46266;SDS011;31998;48.798;15.066;2022-11-20T14:36:20;5.20;;;4.80;;
46266;SDS011;31998;48.798;15.066;2022-11-20T14:38:47;8.93;;;5.93;;
46266;SDS011;31998;48.798;15.066;2022-11-20T14:41:17;11.00;;;8.60;;
46266;SDS011;31998;48.798;15.066;2022-11-20T14:43:47;14.63;;;9.20;;
46266;SDS011;31998;48.798;15.066;2022-11-20T14:46:18;9.60;;;8.10;;
46266;SDS011;31998;48.798;15.066;2022-11-20T14:48:47;14.30;;;8.77;;
46266;SDS011;31998;48.798;15.066;2022-11-20T14:54:20;7.63;;;6.63;;
46266;SDS011;31998;48.798;15.066;2022-11-20T14:57:00;9.73;;;7.83;;
46266;SDS011;31998;48.798;15.066;2022-11-20T14:59:30;12.23;;;9.57;;
46266;SDS011;31998;48.798;15.066;2022-11-20T15:01:59;13.17;;;10.93;;
46266;SDS011;31998;48.798;15.066;2022-11-20T15:04:27;17.17;;;14.30;;
46266;SDS011;31998;48.798;15.066;2022-11-20T15:06:54;21.93;;;17.00;;
46266;SDS011;31998;48.798;15.066;2022-11-20T15:09:21;30.73;;;19.60;;
46266;SDS011;31998;48.798;15.066;2022-11-20T15:11:59;11.67;;;10.47;;
46266;SDS011;31998;48.798;15.066;2022-11-20T15:14:28;11.57;;;9.63;;
46266;SDS011;31998;48.798;15.066;2022-11-20T15:16:55;9.37;;;8.50;;
46266;SDS011;31998;48.798;15.066;2022-11-20T15:19:21;8.03;;;6.80;;
46266;SDS011;31998;48.798;15.066;2022-11-20T15:21:48;8.47;;;7.30;;
46266;SDS011;31998;48.798;15.066;2022-11-20T15:24:14;6.40;;;5.17;;
46266;SDS011;31998;48.798;15.066;2022-11-20T15:26:39;6.87;;;3.87;;
46266;SDS011;31998;48.798;15.066;2022-11-20T15:29:07;6.10;;;5.40;;
46266;SDS011;31998;48.798;15.066;2022-11-20T15:31:35;4.10;;;3.80;;
46266;SDS011;31998;48.798;15.066;2022-11-20T15:34:00;4.03;;;3.73;;
46266;SDS011;31998;48.798;15.066;2022-11-20T15:36:26;10.00;;;4.47;;
46266;SDS011;31998;48.798;15.066;2022-11-20T15:38:51;4.57;;;4.27;;
46266;SDS011;31998;48.798;15.066;2022-11-20T15:41:16;5.57;;;5.00;;
46266;SDS011;31998;48.798;15.066;2022-11-20T15:43:42;5.73;;;5.23;;
46266;SDS011;31998;48.798;15.066;2022-11-20T15:46:14;5.77;;;4.47;;
46266;SDS011;31998;48.798;15.066;2022-11-20T15:48:45;6.70;;;6.00;;
46266;SDS011;31998;48.798;15.066;2022-11-20T15:53:54;9.37;;;8.00;;
46266;SDS011;31998;48.798;15.066;2022-11-20T15:56:19;9.20;;;8.27;;
46266;SDS011;31998;48.798;15.066;2022-11-20T15:58:45;10.47;;;9.53;;
46266;SDS011;31998;48.798;15.066;2022-11-20T16:01:10;9.87;;;7.20;;
46266;SDS011;31998;48.798;15.066;2022-11-20T16:03:38;12.63;;;8.37;;
46266;SDS011;31998;48.798;15.066;2022-11-20T16:06:04;10.53;;;7.83;;
46266;SDS011;31998;48.798;15.066;2022-11-20T16:08:29;8.93;;;5.97;;